Flight Track Log - Related Links

Times and Time Zones

All times are in EDT time to prevent confusion due to time zone crossing. See the VNR187 flight status page for this flight to view local times or setup timezone preferences in your user account.

Time Position Orientation Groundspeed Altitude Reporting Facility
EDT Latitude Longitude Course Direction KTS MPH feet Rate Location/Type
Thu 09:33:15 AM 40.0986 -74.1848 208° Southwest  Level FlightAware Approximate
Thu 09:34:15 AM 40.0316 -74.2351 167° South  Level FlightAware Approximate
Thu 09:35:37 AM 40.0286 -74.2342 216° Southwest 215 247 6,000  Level Washington Center
Thu 09:36:38 AM 39.9731 -74.2867 216° Southwest 225 259 6,700 984 Climbing Washington Center
Thu 09:37:39 AM 39.9214 -74.3361 215° Southwest 231 266 8,000 645 Climbing Washington Center
Thu 09:38:39 AM 39.8617 -74.3914 216° Southwest 254 292 8,000  Level Washington Center
Thu 09:39:38 AM 39.7978 -74.4519 216° Southwest 276 318 8,000 149 Level Washington Center
Thu 09:40:40 AM 39.7336 -74.5122 215° Southwest 281 323 8,300 1,000 Climbing Washington Center
Thu 09:41:38 AM 39.6800 -74.5617 217° Southwest 270 311 10,000 1,678 Climbing Washington Center
Thu 09:42:38 AM 39.6242 -74.6164 232° Southwest 258 297 11,600 1,475 Climbing Washington Center
Thu 09:43:40 AM 39.5850 -74.6814 226° Southwest 246 283 13,000 1,180 Climbing Washington Center
Thu 09:44:40 AM 39.5356 -74.7467 211° Southwest 246 283 14,000 504 Climbing Washington Center
Thu 09:45:39 AM 39.4692 -74.7986 209° Southwest 265 305 14,000 655 Level Washington Center
Thu 09:46:39 AM 39.3967 -74.8503 211° Southwest 287 330 15,300 1,339 Climbing Washington Center
Thu 09:47:40 AM 39.3344 -74.8994 209° Southwest 287 330 16,700 1,311 Climbing Washington Center
Thu 09:48:38 AM 39.2700 -74.9456 217° Southwest 282 325 17,900 655 Climbing Washington Center
Thu 09:49:39 AM 39.2058 -75.0078 226° Southwest 282 325 18,000 50 Climbing Washington Center
Thu 09:50:39 AM 39.1436 -75.0911 222° Southwest 302 348 18,000 595 Level Washington Center
Thu 09:51:40 AM 39.0792 -75.1664 227° Southwest 316 364 19,200 1,311 Climbing Washington Center
Thu 09:52:38 AM 39.0233 -75.2442 199° South 311 358 20,600 1,311 Climbing Washington Center
Thu 09:53:39 AM 38.9442 -75.2794 198° South 291 335 21,800 1,180 Climbing Washington Center
Thu 09:54:40 AM 38.8669 -75.3117 197° South 291 335 23,000 1,109 Climbing Washington Center
Thu 09:55:38 AM 38.7900 -75.3414 198° South 297 342 24,000 504 Climbing Washington Center
Thu 09:56:39 AM 38.7047 -75.3761 197° South 307 353 24,000  Level Washington Center
Thu 09:57:39 AM 38.6150 -75.4111 195° South 328 377 24,000  Level Washington Center
Thu 09:58:40 AM 38.5211 -75.4431 196° South 344 396 24,000 694 Level Washington Center
Thu 09:59:40 AM 38.4317 -75.4750 198° South 349 402 25,400 1,300 Climbing Washington Center
Thu 10:00:40 AM 38.3503 -75.5097 214° Southwest 332 382 26,600 1,220 Climbing Washington Center
Thu 10:01:38 AM 38.2817 -75.5678 216° Southwest 311 358 27,800 712 Climbing Washington Center
Thu 10:02:38 AM 38.2128 -75.6314 216° Southwest 310 357 28,000 99 Climbing Washington Center
Thu 10:03:39 AM 38.1397 -75.7000 217° Southwest 320 368 28,000  Level Washington Center
Thu 10:04:39 AM 38.0625 -75.7736 217° Southwest 333 383 28,000  Level Washington Center
Thu 10:05:40 AM 37.9853 -75.8472 216° Southwest 344 396 28,000  Level Washington Center
Thu 10:06:38 AM 37.9058 -75.9208 216° Southwest 355 409 28,000  Level Washington Center
Thu 10:07:39 AM 37.8325 -75.9889 218° Southwest 361 415 28,000  Level Washington Center
Thu 10:08:40 AM 37.7489 -76.0725 218° Southwest 361 415 28,000  Level Washington Center
Thu 10:09:38 AM 37.6714 -76.1481 212° Southwest 361 415 28,000  Level Washington Center
Thu 10:10:38 AM 37.5961 -76.2078 216° Southwest 361 415 28,000  Level Washington Center
Thu 10:11:39 AM 37.5164 -76.2806 217° Southwest 361 415 28,000  Level Washington Center
Thu 10:12:40 AM 37.4386 -76.3531 216° Southwest 361 415 28,000  Level Washington Center
Thu 10:13:40 AM 37.3611 -76.4228 216° Southwest 361 415 28,000  Level Washington Center
Thu 10:14:40 AM 37.2814 -76.4950 217° Southwest 361 415 28,000  Level Washington Center
Thu 10:15:38 AM 37.2036 -76.5697 215° Southwest 361 415 28,000  Level Washington Center
Thu 10:16:39 AM 37.1258 -76.6392 216° Southwest 361 415 28,000  Level Washington Center
Thu 10:17:39 AM 37.0481 -76.7108 216° Southwest 361 415 28,000  Level Washington Center
Thu 10:18:40 AM 36.9681 -76.7825 216° Southwest 361 415 28,000  Level Washington Center
Thu 10:19:38 AM 36.8836 -76.8592 215° Southwest 361 415 28,000  Level Washington Center
Thu 10:20:38 AM 36.8058 -76.9278 216° Southwest 361 415 28,000  Level Washington Center
Thu 10:21:40 AM 36.7342 -76.9939 216° Southwest 361 415 28,000  Level Washington Center
Thu 10:22:40 AM 36.6561 -77.0650 217° Southwest 356 410 28,000  Level Washington Center
Thu 10:23:38 AM 36.5800 -77.1361 219° Southwest 356 410 28,000  Level Washington Center
Thu 10:24:38 AM 36.5061 -77.2094 217° Southwest 351 404 28,000  Level Washington Center
Thu 10:25:39 AM 36.4278 -77.2828 219° Southwest 351 404 28,000  Level Washington Center
Thu 10:26:40 AM 36.3539 -77.3561 216° Southwest 351 404 28,000  Level Washington Center
Thu 10:27:40 AM 36.2756 -77.4264 218° Southwest 351 404 28,000  Level Washington Center
Thu 10:28:38 AM 36.2036 -77.4967 219° Southwest 344 396 28,000  Level Washington Center
Thu 10:29:39 AM 36.1272 -77.5722 216° Southwest 349 402 28,000  Level Washington Center
Thu 10:30:40 AM 36.0489 -77.6422 216° Southwest 349 402 28,000  Level Washington Center
Thu 10:31:40 AM 35.9661 -77.7169 212° Southwest 349 402 28,000  Level Washington Center
Thu 10:32:40 AM 35.8814 -77.7814 212° Southwest 349 402 28,000  Level Washington Center
Thu 10:33:38 AM 35.8011 -77.8431 213° Southwest 354 407 28,000  Level Washington Center
Thu 10:34:39 AM 35.7183 -77.9097 212° Southwest 354 407 28,000  Level Washington Center
Thu 10:35:40 AM 35.6358 -77.9739 212° Southwest 354 407 28,000  Level Washington Center
Thu 10:36:40 AM 35.5553 -78.0353 212° Southwest 354 407 28,000  Level Washington Center
Thu 10:37:40 AM 35.4725 -78.0992 215° Southwest 354 407 28,000  Level Washington Center
Thu 10:38:38 AM 35.4003 -78.1606 218° Southwest 354 407 28,000  Level Washington Center
Thu 10:39:38 AM 35.3258 -78.2319 218° Southwest 349 402 28,000  Level Washington Center
Thu 10:40:39 AM 35.2489 -78.3058 219° Southwest 349 402 28,000  Level Washington Center
Thu 10:41:39 AM 35.1742 -78.3794 219° Southwest 354 407 28,000  Level Washington Center
Thu 10:42:40 AM 35.0931 -78.4606 218° Southwest 348 400 28,000  Level Washington Center
Thu 10:43:38 AM 35.0183 -78.5314 219° Southwest 348 400 28,000  Level Washington Center
Thu 10:44:38 AM 34.9456 -78.6022 219° Southwest 348 400 28,000  Level Washington Center
Thu 10:45:39 AM 34.8708 -78.6753 217° Southwest 348 400 28,000  Level Washington Center
Thu 10:46:39 AM 34.7936 -78.7458 218° Southwest 348 400 28,000  Level Washington Center
Thu 10:48:59 AM 34.6186 -78.9142 217° Southwest 350 403 28,000  Level Jacksonville Center
Thu 10:49:59 AM 34.5436 -78.9831 222° Southwest 350 403 28,000  Level Jacksonville Center
Thu 10:50:59 AM 34.4750 -79.0592 217° Southwest 344 396 28,000  Level Jacksonville Center
Thu 10:51:59 AM 34.4000 -79.1281 218° Southwest 344 396 28,000  Level Jacksonville Center
Thu 10:52:59 AM 34.3228 -79.2017 218° Southwest 344 396 28,000  Level Jacksonville Center
Thu 10:53:59 AM 34.2478 -79.2728 217° Southwest 349 402 28,000  Level Jacksonville Center
Thu 10:54:59 AM 34.1703 -79.3436 217° Southwest 349 402 28,000  Level Jacksonville Center
Thu 10:56:59 AM 34.0281 -79.4747 217° Southwest 349 402 28,000  Level Jacksonville Center
Thu 10:57:59 AM 33.9525 -79.5428 219° Southwest 344 396 28,000  Level Jacksonville Center
Thu 10:58:59 AM 33.8794 -79.6131 218° Southwest 344 396 28,000  Level Jacksonville Center
Thu 10:59:59 AM 33.8039 -79.6833 218° Southwest 339 390 28,000  Level Jacksonville Center
Thu 11:00:59 AM 33.7286 -79.7536 217° Southwest 339 390 28,000  Level Jacksonville Center
Thu 11:01:59 AM 33.6550 -79.8211 218° Southwest 339 390 28,000  Level Jacksonville Center
Thu 11:02:59 AM 33.5794 -79.8911 218° Southwest 339 390 28,000  Level Jacksonville Center
Thu 11:03:59 AM 33.5061 -79.9608 217° Southwest 339 390 28,000  Level Jacksonville Center
Thu 11:04:59 AM 33.4283 -80.0306 218° Southwest 339 390 28,000  Level Jacksonville Center
Thu 11:05:59 AM 33.3567 -80.0975 219° Southwest 339 390 28,000 -700 Level Jacksonville Center
Thu 11:06:59 AM 33.2811 -80.1694 217° Southwest 339 390 26,600 -1,450 Descending Jacksonville Center
Thu 11:07:59 AM 33.2014 -80.2414 216° Southwest 344 396 25,100 -1,300 Descending Jacksonville Center
Thu 11:08:59 AM 33.1172 -80.3133 218° Southwest 352 405 24,000 -550 Descending Jacksonville Center
Thu 11:09:59 AM 33.0456 -80.3797 217° Southwest 352 405 24,000 -750 Level Jacksonville Center
Thu 11:10:59 AM 32.9633 -80.4539 192° South 352 405 22,500 -1,500 Descending Jacksonville Center
Thu 11:11:59 AM 32.8719 -80.4761 187° South 336 387 21,000 -1,750 Descending Jacksonville Center
Thu 11:12:59 AM 32.7825 -80.4883 205° Southwest 331 381 19,000 -2,000 Descending Jacksonville Center
Thu 11:13:59 AM 32.7039 -80.5325 224° Southwest 326 375 17,000 -1,750 Descending Jacksonville Center
Thu 11:14:59 AM 32.6447 -80.6006 225° Southwest 300 345 15,500 -1,500 Descending Jacksonville Center
Thu 11:15:59 AM 32.5894 -80.6661 225° Southwest 290 334 14,000 -1,500 Descending Jacksonville Center
Thu 11:16:59 AM 32.5344 -80.7314 225° Southwest 290 334 12,500 -1,500 Descending Jacksonville Center
Thu 11:17:59 AM 32.4792 -80.7969 227° Southwest 284 327 11,000 -1,500 Descending Jacksonville Center
Thu 11:18:59 AM 32.4278 -80.8619 242° Southwest 279 321 9,500 -1,500 Descending Jacksonville Center
Thu 11:19:59 AM 32.3917 -80.9417 244° Southwest 279 321 8,000 -1,500 Descending Jacksonville Center
Thu 11:20:59 AM 32.3594 -81.0208 243° Southwest 266 306 6,500 -1,250 Descending Jacksonville Center
Thu 11:21:59 AM 32.3292 -81.0903 244° Southwest 266 306 5,500 -1,000 Descending Jacksonville Center
Thu 11:22:59 AM 32.3008 -81.1597 244° Southwest 250 288 4,500 -750 Descending Jacksonville Center
Thu 11:23:59 AM 32.2706 -81.2317 246° West 236 272 4,000 -800 Descending Jacksonville Center
Thu 11:24:59 AM 32.2442 -81.3008 244° Southwest 231 266 2,900 -1,008 Descending Jacksonville Center
Thu 11:25:58 AM 32.2139 -81.3750 244° Southwest 238 274 2,000 -450 Descending Jacksonville Center
Thu 11:26:59 AM 32.1894 -81.4344 176° South 231 266 2,000  Level Jacksonville Center
Thu 11:27:59 AM 32.1372 -81.4303 102° East 187 215 2,000  Level Jacksonville Center
Thu 11:28:59 AM 32.1283 -81.3814 91° East 133 153 2,000 -50 Level Jacksonville Center
Thu 11:29:59 AM 32.1278 -81.3325 91° East 145 167 1,900 -400 Descending Jacksonville Center
Thu 11:30:59 AM 32.1272 -81.2956 91° East 138 159 1,200 -650 Descending Jacksonville Center
Thu 11:31:59 AM 32.1267 -81.2539 87° East 133 153 600 -500 Descending Jacksonville Center
Thu 11:32:59 AM 32.1283 -81.2122 64° Northeast 128 147 200 -400 Descending Jacksonville Center
Thu 11:40:15 AM 32.4120 -80.5122 245° Southwest  Level FlightAware Approximate
Thu 11:41:15 AM 32.3732 -80.6088 245° Southwest  Level FlightAware Approximate

Login

Don't have an account? Register now (free) for customized features, flight alerts, and more!